createdAt,value
2017-11-24T00:00:27.224Z,0
2017-11-24T00:01:27.841Z,0
2017-11-24T00:02:28.441Z,0
2017-11-24T00:03:29.047Z,0
2017-11-24T00:04:29.653Z,0
2017-11-24T00:05:30.260Z,0
2017-11-24T00:06:30.870Z,0
2017-11-24T00:07:31.476Z,0
2017-11-24T00:08:32.084Z,0
2017-11-24T00:09:32.690Z,0
2017-11-24T00:10:33.329Z,0
2017-11-24T00:11:33.937Z,0
2017-11-24T00:12:34.543Z,0
2017-11-24T00:13:35.182Z,0
2017-11-24T00:14:35.789Z,0
2017-11-24T00:15:36.396Z,0
2017-11-24T00:16:37.004Z,0
2017-11-24T00:17:37.615Z,0
2017-11-24T00:18:38.221Z,0
2017-11-24T00:19:38.828Z,0
2017-11-24T00:20:39.434Z,0
2017-11-24T00:21:40.069Z,0
2017-11-24T00:22:40.675Z,0
2017-11-24T00:23:41.283Z,0
2017-11-24T00:24:41.918Z,0
2017-11-24T00:25:42.529Z,0
2017-11-24T00:26:43.167Z,0
2017-11-24T00:27:43.777Z,0
2017-11-24T00:28:44.384Z,0
2017-11-24T00:29:44.997Z,0
2017-11-24T00:30:45.607Z,0
2017-11-24T00:31:46.217Z,0
2017-11-24T00:32:46.854Z,0
2017-11-24T00:33:47.460Z,0
2017-11-24T00:34:48.068Z,0
2017-11-24T00:35:48.675Z,0
2017-11-24T00:36:49.291Z,0
2017-11-24T00:37:49.893Z,0
2017-11-24T00:38:50.506Z,0
2017-11-24T00:39:51.147Z,0
2017-11-24T00:40:51.761Z,0
2017-11-24T00:41:52.358Z,0
2017-11-24T00:42:52.966Z,0
2017-11-24T00:43:53.572Z,0
2017-11-24T00:44:54.212Z,0
2017-11-24T00:45:54.820Z,0
2017-11-24T00:46:55.459Z,0
2017-11-24T00:47:56.062Z,0
2017-11-24T00:48:56.669Z,0
2017-11-24T00:49:57.276Z,0
2017-11-24T00:50:57.918Z,0
2017-11-24T00:51:58.562Z,0
2017-11-24T00:52:59.162Z,0
2017-11-24T00:53:59.775Z,0
2017-11-24T00:55:00.380Z,0
2017-11-24T00:56:00.987Z,0
2017-11-24T00:57:01.594Z,0
2017-11-24T00:58:02.199Z,0
2017-11-24T00:59:02.810Z,0
2017-11-24T01:00:03.418Z,0
2017-11-24T01:01:04.074Z,0
2017-11-24T01:02:04.714Z,0
2017-11-24T01:03:05.321Z,0
2017-11-24T01:04:05.929Z,0
2017-11-24T01:05:06.536Z,0
2017-11-24T01:06:07.198Z,0
2017-11-24T01:07:07.806Z,0
2017-11-24T01:08:08.423Z,0
2017-11-24T01:09:09.050Z,0
2017-11-24T01:10:09.658Z,0
2017-11-24T01:11:10.264Z,0
2017-11-24T01:12:10.900Z,0
2017-11-24T01:13:11.506Z,0
2017-11-24T01:14:12.116Z,0
2017-11-24T01:15:12.746Z,0
2017-11-24T01:16:13.352Z,0
2017-11-24T01:17:13.962Z,0
2017-11-24T01:18:14.569Z,0
2017-11-24T01:19:15.174Z,0
2017-11-24T01:20:15.781Z,0
2017-11-24T01:21:16.387Z,0
2017-11-24T01:22:16.993Z,0
2017-11-24T01:23:17.597Z,0
2017-11-24T01:24:18.202Z,0
2017-11-24T01:25:18.826Z,0
2017-11-24T01:26:19.417Z,0
2017-11-24T01:27:20.029Z,0
2017-11-24T01:28:20.633Z,0
2017-11-24T01:29:21.239Z,0
2017-11-24T01:30:21.852Z,0
2017-11-24T01:31:22.484Z,0
2017-11-24T01:32:23.096Z,0
2017-11-24T01:33:23.700Z,0
2017-11-24T01:34:24.309Z,0
2017-11-24T01:35:24.913Z,0
2017-11-24T01:36:25.526Z,0
2017-11-24T01:37:26.130Z,0
2017-11-24T01:38:26.744Z,0
2017-11-24T01:39:27.356Z,0
2017-11-24T01:40:27.959Z,0
2017-11-24T01:41:28.563Z,0
2017-11-24T01:42:29.172Z,0
2017-11-24T01:43:29.780Z,0
2017-11-24T01:44:30.413Z,0
2017-11-24T01:45:31.021Z,0
2017-11-24T01:46:31.680Z,0
2017-11-24T01:47:32.283Z,0
2017-11-24T01:48:32.919Z,0
2017-11-24T01:49:33.533Z,0
2017-11-24T01:50:34.138Z,0
2017-11-24T01:51:34.740Z,0
2017-11-24T01:52:35.349Z,0
2017-11-24T01:53:35.952Z,0
2017-11-24T01:54:36.558Z,0
2017-11-24T01:55:37.171Z,0
2017-11-24T01:56:37.806Z,0
2017-11-24T01:57:38.412Z,0
2017-11-24T01:58:39.055Z,0
2017-11-24T01:59:39.659Z,0
2017-11-24T02:00:40.269Z,0
2017-11-24T02:01:40.882Z,0
2017-11-24T02:02:41.490Z,0
2017-11-24T02:03:42.107Z,0
2017-11-24T02:04:42.700Z,0
2017-11-24T02:05:43.312Z,0
2017-11-24T02:06:43.916Z,0
2017-11-24T02:07:44.521Z,0
2017-11-24T02:08:45.157Z,0
2017-11-24T02:09:45.764Z,0
2017-11-24T02:10:46.401Z,0
2017-11-24T02:11:47.008Z,0
2017-11-24T02:12:47.613Z,0
2017-11-24T02:13:48.219Z,0
2017-11-24T02:14:48.824Z,0
2017-11-24T02:15:49.433Z,0
2017-11-24T02:16:50.038Z,0
2017-11-24T02:17:50.650Z,0
2017-11-24T02:18:51.285Z,0
2017-11-24T02:19:51.891Z,0
2017-11-24T02:20:52.499Z,0
2017-11-24T02:21:53.111Z,0
2017-11-24T02:22:53.713Z,0
2017-11-24T02:23:54.318Z,0
2017-11-24T02:24:54.956Z,0
2017-11-24T02:25:55.562Z,0
2017-11-24T02:26:56.166Z,0
2017-11-24T02:27:56.774Z,0
2017-11-24T02:28:57.378Z,0
2017-11-24T02:29:57.985Z,0
2017-11-24T02:30:58.593Z,0
2017-11-24T02:31:59.257Z,0
2017-11-24T02:32:59.874Z,0
2017-11-24T02:34:00.477Z,0
2017-11-24T02:35:01.090Z,0
2017-11-24T02:36:01.688Z,0
2017-11-24T02:37:02.290Z,0
2017-11-24T02:38:02.902Z,0
2017-11-24T02:39:03.514Z,0
2017-11-24T02:40:04.120Z,0
2017-11-24T02:41:04.759Z,0
2017-11-24T02:42:05.367Z,0
2017-11-24T02:43:05.974Z,0
2017-11-24T02:44:06.612Z,0
2017-11-24T02:45:07.221Z,0
2017-11-24T02:46:07.829Z,0
2017-11-24T02:47:08.432Z,0
2017-11-24T02:48:09.040Z,0
2017-11-24T02:49:09.646Z,0
2017-11-24T02:50:10.253Z,0
2017-11-24T02:51:10.862Z,0
2017-11-24T02:52:11.473Z,0
2017-11-24T02:53:12.075Z,0
2017-11-24T02:54:12.689Z,0
2017-11-24T02:55:13.285Z,0
2017-11-24T02:56:13.928Z,0
2017-11-24T02:57:14.532Z,0
2017-11-24T02:58:15.144Z,0
2017-11-24T02:59:15.746Z,0
2017-11-24T03:00:16.355Z,0
2017-11-24T03:01:16.966Z,0
2017-11-24T03:02:17.568Z,0
2017-11-24T03:03:18.186Z,0
2017-11-24T03:04:18.787Z,0
2017-11-24T03:05:19.398Z,0
2017-11-24T03:06:20.000Z,0
2017-11-24T03:07:20.611Z,0
2017-11-24T03:08:21.214Z,0
2017-11-24T03:09:21.821Z,0
2017-11-24T03:10:22.428Z,0
2017-11-24T03:11:23.037Z,0
2017-11-24T03:12:23.644Z,0
2017-11-24T03:13:24.251Z,0
2017-11-24T03:14:24.861Z,0
2017-11-24T03:15:25.497Z,0
2017-11-24T03:16:26.103Z,0
2017-11-24T03:17:26.710Z,0
2017-11-24T03:18:27.313Z,0
2017-11-24T03:19:27.924Z,0
2017-11-24T03:20:28.531Z,0
2017-11-24T03:21:29.136Z,0
2017-11-24T03:22:29.753Z,0
2017-11-24T03:23:30.356Z,0
2017-11-24T03:24:30.961Z,0
2017-11-24T03:25:31.575Z,0
2017-11-24T03:26:32.176Z,0
2017-11-24T03:27:32.785Z,0
2017-11-24T03:28:33.391Z,0
2017-11-24T03:29:34.012Z,0
2017-11-24T03:30:34.639Z,0
2017-11-24T03:31:35.244Z,0
2017-11-24T03:32:35.856Z,0
2017-11-24T03:33:36.465Z,0
2017-11-24T03:34:37.068Z,0
2017-11-24T03:35:37.680Z,0
2017-11-24T03:36:38.283Z,0
2017-11-24T03:37:38.897Z,0
2017-11-24T03:38:39.503Z,0
2017-11-24T03:39:40.109Z,0
2017-11-24T03:40:40.713Z,0
2017-11-24T03:41:41.319Z,0
2017-11-24T03:42:41.926Z,0
2017-11-24T03:43:42.539Z,0
2017-11-24T03:44:43.138Z,0
2017-11-24T03:45:43.744Z,0
2017-11-24T03:46:44.355Z,0
2017-11-24T03:47:44.962Z,0
2017-11-24T03:48:45.570Z,0
2017-11-24T03:49:46.203Z,0
2017-11-24T03:50:46.813Z,0
2017-11-24T03:51:47.422Z,0
2017-11-24T03:52:48.032Z,0
2017-11-24T03:53:48.636Z,0
2017-11-24T03:54:49.275Z,0
2017-11-24T03:55:49.883Z,0
2017-11-24T03:56:50.489Z,0
2017-11-24T03:57:51.095Z,0
2017-11-24T03:58:51.704Z,0
2017-11-24T03:59:52.312Z,0
2017-11-24T04:00:52.947Z,0
2017-11-24T04:01:53.553Z,0
2017-11-24T04:02:54.160Z,0
2017-11-24T04:03:54.768Z,0
2017-11-24T04:04:55.374Z,0
2017-11-24T04:05:55.986Z,0
2017-11-24T04:06:56.590Z,0
2017-11-24T04:07:57.197Z,0
2017-11-24T04:08:57.806Z,0
2017-11-24T04:09:58.418Z,0
2017-11-24T04:10:59.021Z,0
2017-11-24T04:11:59.628Z,0
2017-11-24T04:13:00.233Z,0
2017-11-24T04:14:00.846Z,0
2017-11-24T04:15:01.479Z,0
2017-11-24T04:16:02.086Z,0
2017-11-24T04:17:02.692Z,0
2017-11-24T04:18:03.299Z,0
2017-11-24T04:19:03.904Z,0
2017-11-24T04:20:04.516Z,0
2017-11-24T04:21:05.120Z,0
2017-11-24T04:22:05.725Z,0
2017-11-24T04:23:06.332Z,0
2017-11-24T04:24:06.945Z,0
2017-11-24T04:25:07.556Z,0
2017-11-24T04:26:08.159Z,0
2017-11-24T04:27:08.795Z,0
2017-11-24T04:28:09.402Z,0
2017-11-24T04:29:10.008Z,0
2017-11-24T04:30:10.612Z,0
2017-11-24T04:31:11.227Z,0
2017-11-24T04:32:11.855Z,0
2017-11-24T04:33:12.461Z,0
2017-11-24T04:34:13.066Z,0
2017-11-24T04:35:13.676Z,0
2017-11-24T04:36:14.281Z,0
2017-11-24T04:37:14.886Z,0
2017-11-24T04:38:15.498Z,0
2017-11-24T04:39:16.102Z,0
2017-11-24T04:40:16.707Z,0
2017-11-24T04:41:17.311Z,0
2017-11-24T04:42:17.924Z,0
2017-11-24T04:43:18.529Z,0
2017-11-24T04:44:19.141Z,0
2017-11-24T04:45:19.745Z,0
2017-11-24T04:46:20.350Z,0
2017-11-24T04:47:20.988Z,0
2017-11-24T04:48:21.596Z,0
2017-11-24T04:49:22.233Z,0
2017-11-24T04:50:22.842Z,0
2017-11-24T04:51:23.454Z,0
2017-11-24T04:52:24.060Z,0
2017-11-24T04:53:24.662Z,0
2017-11-24T04:54:25.267Z,0
2017-11-24T04:55:25.874Z,0
2017-11-24T04:56:26.484Z,0
2017-11-24T04:57:27.087Z,0
2017-11-24T04:58:27.692Z,0
2017-11-24T04:59:28.328Z,0
2017-11-24T05:00:28.935Z,0
2017-11-24T05:01:29.540Z,0
2017-11-24T05:02:30.148Z,0
2017-11-24T05:03:30.752Z,0
2017-11-24T05:04:31.358Z,0
2017-11-24T05:05:31.967Z,0
2017-11-24T05:06:32.573Z,0
2017-11-24T05:07:33.183Z,0
2017-11-24T05:08:33.788Z,0
2017-11-24T05:09:34.393Z,0
2017-11-24T05:10:35.005Z,0
2017-11-24T05:11:35.611Z,0
2017-11-24T05:12:36.216Z,0
2017-11-24T05:13:36.821Z,0
2017-11-24T05:14:37.460Z,0
2017-11-24T05:15:38.068Z,0
2017-11-24T05:16:38.672Z,0
2017-11-24T05:17:39.278Z,0
2017-11-24T05:18:39.915Z,0
2017-11-24T05:19:40.522Z,0
2017-11-24T05:20:41.128Z,0
2017-11-24T05:21:41.735Z,0
2017-11-24T05:22:42.340Z,0
2017-11-24T05:23:42.946Z,0
2017-11-24T05:24:43.555Z,0
2017-11-24T05:25:44.158Z,0
2017-11-24T05:26:44.765Z,0
2017-11-24T05:27:45.375Z,0
2017-11-24T05:28:45.986Z,0
2017-11-24T05:29:46.594Z,0
2017-11-24T05:30:47.198Z,0
2017-11-24T05:31:47.804Z,0
2017-11-24T05:32:48.410Z,0
2017-11-24T05:33:49.020Z,0
2017-11-24T05:34:49.624Z,0
2017-11-24T05:35:50.232Z,0
2017-11-24T05:36:50.836Z,0
2017-11-24T05:37:51.442Z,0
2017-11-24T05:38:52.057Z,0
2017-11-24T05:39:52.660Z,0
2017-11-24T05:40:53.272Z,0
2017-11-24T05:41:53.876Z,0
2017-11-24T05:42:54.482Z,0
2017-11-24T05:43:55.089Z,0
2017-11-24T05:44:55.694Z,0
2017-11-24T05:45:56.299Z,0
2017-11-24T05:46:56.911Z,0
2017-11-24T05:47:57.519Z,0
2017-11-24T05:48:58.122Z,0
2017-11-24T05:49:58.742Z,0
2017-11-24T05:50:59.338Z,0
2017-11-24T05:51:59.946Z,0
2017-11-24T05:53:00.551Z,0
2017-11-24T05:54:01.162Z,0
2017-11-24T05:55:01.767Z,0
2017-11-24T05:56:02.374Z,0
2017-11-24T05:57:02.980Z,0
2017-11-24T05:58:03.588Z,0
2017-11-24T05:59:04.204Z,0
2017-11-24T06:00:04.828Z,0
2017-11-24T06:01:05.435Z,0
2017-11-24T06:02:06.041Z,0
2017-11-24T06:03:06.646Z,0
2017-11-24T06:04:07.253Z,0
2017-11-24T06:05:07.859Z,0
2017-11-24T06:06:08.496Z,0
2017-11-24T06:07:09.101Z,0
2017-11-24T06:08:09.714Z,0
2017-11-24T06:09:10.349Z,0
2017-11-24T06:10:10.960Z,0
2017-11-24T06:11:11.562Z,0
2017-11-24T06:12:12.166Z,0
2017-11-24T06:13:12.780Z,0
2017-11-24T06:14:13.409Z,0
2017-11-24T06:15:14.048Z,0
2017-11-24T06:16:14.652Z,0
2017-11-24T06:17:15.258Z,0
2017-11-24T06:18:15.869Z,0
2017-11-24T06:19:16.471Z,0
2017-11-24T06:20:17.079Z,0
2017-11-24T06:21:17.682Z,0
2017-11-24T06:22:18.287Z,0
2017-11-24T06:23:18.893Z,0
2017-11-24T06:24:19.497Z,0
2017-11-24T06:25:20.103Z,0
2017-11-24T06:26:20.712Z,0
2017-11-24T06:27:21.318Z,0
2017-11-24T06:28:21.931Z,0
2017-11-24T06:29:22.539Z,0
2017-11-24T06:30:23.147Z,0
2017-11-24T06:31:23.759Z,0
2017-11-24T06:32:24.360Z,4
2017-11-24T06:33:25.001Z,4
2017-11-24T06:34:25.611Z,4
2017-11-24T06:35:26.211Z,4
2017-11-24T06:36:26.817Z,8
2017-11-24T06:37:27.458Z,4
2017-11-24T06:38:28.068Z,4
2017-11-24T06:39:28.708Z,4
2017-11-24T06:40:29.354Z,4
2017-11-24T06:41:29.953Z,8
2017-11-24T06:42:30.560Z,8
2017-11-24T06:43:31.193Z,8
2017-11-24T06:44:31.800Z,8
2017-11-24T06:45:32.407Z,12
2017-11-24T06:46:33.012Z,8
2017-11-24T06:47:33.632Z,12
2017-11-24T06:48:34.243Z,8
2017-11-24T06:49:34.844Z,12
2017-11-24T06:50:35.449Z,8
2017-11-24T06:51:36.062Z,8
2017-11-24T06:52:36.672Z,12
2017-11-24T06:53:37.276Z,12
2017-11-24T06:54:37.890Z,12
2017-11-24T06:55:38.497Z,12
2017-11-24T06:56:39.105Z,16
2017-11-24T06:57:39.709Z,12
2017-11-24T06:58:40.317Z,16
2017-11-24T06:59:40.928Z,16
2017-11-24T07:00:41.540Z,20
2017-11-24T07:01:42.145Z,20
2017-11-24T07:02:42.758Z,20
2017-11-24T07:03:43.363Z,24
2017-11-24T07:04:43.970Z,24
2017-11-24T07:05:44.576Z,28
2017-11-24T07:06:45.181Z,28
2017-11-24T07:07:45.796Z,28
2017-11-24T07:08:46.407Z,28
2017-11-24T07:09:47.012Z,32
2017-11-24T07:10:47.620Z,32
2017-11-24T07:11:48.226Z,32
2017-11-24T07:12:48.833Z,32
2017-11-24T07:13:49.440Z,40
2017-11-24T07:14:50.048Z,36
2017-11-24T07:15:50.654Z,36
2017-11-24T07:16:51.267Z,40
2017-11-24T07:17:51.874Z,40
2017-11-24T07:18:52.479Z,40
2017-11-24T07:19:53.087Z,40
2017-11-24T07:20:53.694Z,44
2017-11-24T07:21:54.301Z,44
2017-11-24T07:22:54.911Z,48
2017-11-24T07:23:55.546Z,48
2017-11-24T07:24:56.154Z,48
2017-11-24T07:25:56.761Z,48
2017-11-24T07:26:57.379Z,52
2017-11-24T07:27:57.977Z,52
2017-11-24T07:28:58.583Z,56
2017-11-24T07:29:59.192Z,60
2017-11-24T07:30:59.832Z,60
2017-11-24T07:32:00.437Z,60
2017-11-24T07:33:01.049Z,64
2017-11-24T07:34:01.657Z,68
2017-11-24T07:35:02.264Z,68
2017-11-24T07:36:02.876Z,72
2017-11-24T07:37:03.479Z,72
2017-11-24T07:38:04.086Z,76
2017-11-24T07:39:04.722Z,76
2017-11-24T07:40:05.366Z,76
2017-11-24T07:41:05.969Z,80
2017-11-24T07:42:06.579Z,80
2017-11-24T07:43:07.218Z,84
2017-11-24T07:44:07.832Z,84
2017-11-24T07:45:08.435Z,88
2017-11-24T07:46:09.040Z,88
2017-11-24T07:47:09.648Z,92
2017-11-24T07:48:10.255Z,96
2017-11-24T07:49:10.864Z,100
2017-11-24T07:50:11.476Z,104
2017-11-24T07:51:12.089Z,104
2017-11-24T07:52:12.697Z,108
2017-11-24T07:53:13.305Z,112
2017-11-24T07:54:13.914Z,108
2017-11-24T07:55:14.523Z,112
2017-11-24T07:56:15.130Z,108
2017-11-24T07:57:15.766Z,108
2017-11-24T07:58:16.374Z,108
2017-11-24T07:59:17.015Z,104
2017-11-24T08:00:17.629Z,108
2017-11-24T08:01:18.232Z,108
2017-11-24T08:02:18.841Z,112
2017-11-24T08:03:19.450Z,112
2017-11-24T08:04:20.066Z,116
2017-11-24T08:05:20.671Z,116
2017-11-24T08:06:21.282Z,124
2017-11-24T08:07:21.890Z,124
2017-11-24T08:08:22.497Z,128
2017-11-24T08:09:23.111Z,132
2017-11-24T08:10:23.717Z,140
2017-11-24T08:11:24.329Z,144
2017-11-24T08:12:24.939Z,148
2017-11-24T08:13:25.548Z,160
2017-11-24T08:14:26.161Z,172
2017-11-24T08:15:26.779Z,168
2017-11-24T08:16:27.380Z,168
2017-11-24T08:17:28.019Z,164
2017-11-24T08:18:28.631Z,164
2017-11-24T08:19:29.243Z,164
2017-11-24T08:20:29.853Z,168
2017-11-24T08:21:30.463Z,168
2017-11-24T08:22:31.076Z,164
2017-11-24T08:23:31.690Z,164
2017-11-24T08:24:32.305Z,168
2017-11-24T08:25:32.910Z,168
2017-11-24T08:26:33.520Z,172
2017-11-24T08:27:34.163Z,172
2017-11-24T08:28:34.773Z,176
2017-11-24T08:29:35.382Z,180
2017-11-24T08:30:36.016Z,184
2017-11-24T08:31:36.602Z,192
2017-11-24T08:32:37.212Z,192
2017-11-24T08:33:37.822Z,200
2017-11-24T08:34:38.441Z,200
2017-11-24T08:35:39.075Z,208
2017-11-24T08:36:39.692Z,212
2017-11-24T08:37:40.305Z,220
2017-11-24T08:38:40.913Z,232
2017-11-24T08:39:41.523Z,224
2017-11-24T08:40:42.137Z,228
2017-11-24T08:41:42.747Z,232
2017-11-24T08:42:43.359Z,244
2017-11-24T08:43:43.973Z,236
2017-11-24T08:44:44.583Z,236
2017-11-24T08:45:45.215Z,240
2017-11-24T08:46:45.852Z,240
2017-11-24T08:47:46.464Z,248
2017-11-24T08:48:47.074Z,248
2017-11-24T08:49:47.683Z,252
2017-11-24T08:50:48.294Z,248
2017-11-24T08:51:48.939Z,244
2017-11-24T08:52:49.553Z,236
2017-11-24T08:53:50.193Z,236
2017-11-24T08:54:50.809Z,244
2017-11-24T08:55:51.420Z,244
2017-11-24T08:56:52.029Z,244
2017-11-24T08:57:52.643Z,240
2017-11-24T08:58:53.256Z,240
2017-11-24T08:59:53.865Z,252
2017-11-24T09:00:54.480Z,252
2017-11-24T09:01:55.094Z,244
2017-11-24T09:02:55.740Z,256
2017-11-24T09:03:56.347Z,260
2017-11-24T09:04:56.973Z,264
2017-11-24T09:05:57.583Z,268
2017-11-24T09:06:58.190Z,272
2017-11-24T09:07:58.797Z,268
2017-11-24T09:08:59.412Z,276
2017-11-24T09:10:00.029Z,280
2017-11-24T09:11:00.637Z,292
2017-11-24T09:12:01.250Z,284
2017-11-24T09:13:01.860Z,280
2017-11-24T09:14:02.470Z,284
2017-11-24T09:15:03.087Z,288
2017-11-24T09:16:03.696Z,296
2017-11-24T09:17:04.314Z,312
2017-11-24T09:18:04.921Z,332
2017-11-24T09:19:05.529Z,356
2017-11-24T09:20:06.141Z,356
2017-11-24T09:21:06.757Z,368
2017-11-24T09:22:07.373Z,368
2017-11-24T09:23:07.986Z,372
2017-11-24T09:24:08.624Z,376
2017-11-24T09:25:09.237Z,340
2017-11-24T09:26:09.846Z,344
2017-11-24T09:27:10.457Z,336
2017-11-24T09:28:11.068Z,324
2017-11-24T09:29:11.676Z,300
2017-11-24T09:30:12.290Z,264
2017-11-24T09:31:12.938Z,260
2017-11-24T09:32:13.543Z,304
2017-11-24T09:33:14.156Z,288
2017-11-24T09:34:14.767Z,296
2017-11-24T09:35:15.378Z,288
2017-11-24T09:36:15.995Z,312
2017-11-24T09:37:16.605Z,316
2017-11-24T09:38:17.214Z,332
2017-11-24T09:39:17.827Z,384
2017-11-24T09:40:18.443Z,384
2017-11-24T09:41:19.054Z,384
2017-11-24T09:42:19.661Z,380
2017-11-24T09:43:20.273Z,456
2017-11-24T09:44:20.884Z,432
2017-11-24T09:45:21.495Z,392
2017-11-24T09:46:22.108Z,396
2017-11-24T09:47:22.718Z,444
2017-11-24T09:48:23.329Z,484
2017-11-24T09:49:23.950Z,560
2017-11-24T09:50:24.594Z,536
2017-11-24T09:51:25.209Z,488
2017-11-24T09:52:25.818Z,576
2017-11-24T09:53:26.439Z,588
2017-11-24T09:54:27.048Z,580
2017-11-24T09:55:27.662Z,488
2017-11-24T09:56:28.267Z,376
2017-11-24T09:57:28.879Z,360
2017-11-24T09:58:29.492Z,408
2017-11-24T09:59:30.111Z,444
2017-11-24T10:00:30.720Z,508
2017-11-24T10:01:31.339Z,500
2017-11-24T10:02:31.947Z,464
2017-11-24T10:03:32.563Z,380
2017-11-24T10:04:33.169Z,372
2017-11-24T10:05:33.783Z,456
2017-11-24T10:06:34.394Z,528
2017-11-24T10:07:35.005Z,548
2017-11-24T10:08:35.618Z,564
2017-11-24T10:09:36.237Z,572
2017-11-24T10:10:36.851Z,616
2017-11-24T10:11:37.464Z,672
2017-11-24T10:12:38.073Z,696
2017-11-24T10:13:38.691Z,812
2017-11-24T10:14:39.301Z,940
2017-11-24T10:15:39.911Z,940
2017-11-24T10:16:40.526Z,1020
2017-11-24T10:17:41.139Z,1080
2017-11-24T10:18:41.751Z,1064
2017-11-24T10:19:42.396Z,1084
2017-11-24T10:20:43.015Z,1080
2017-11-24T10:21:43.633Z,1124
2017-11-24T10:22:44.278Z,1132
2017-11-24T10:23:44.896Z,1124
2017-11-24T10:24:45.542Z,1132
2017-11-24T10:25:46.188Z,1148
2017-11-24T10:26:46.810Z,1160
2017-11-24T10:27:47.424Z,1160
2017-11-24T10:28:48.074Z,1180
2017-11-24T10:29:48.688Z,1192
2017-11-24T10:30:49.306Z,1200
2017-11-24T10:31:49.945Z,1188
2017-11-24T10:32:50.564Z,1148
2017-11-24T10:33:51.209Z,1164
2017-11-24T10:34:51.823Z,1196
2017-11-24T10:35:52.476Z,1208
2017-11-24T10:36:53.090Z,1196
2017-11-24T10:37:53.706Z,1200
2017-11-24T10:38:54.319Z,1176
2017-11-24T10:39:54.935Z,1204
2017-11-24T10:40:55.549Z,1236
2017-11-24T10:41:56.176Z,1204
2017-11-24T10:42:56.788Z,1244
2017-11-24T10:43:57.419Z,1240
2017-11-24T10:44:58.022Z,1240
2017-11-24T10:45:58.634Z,1252
2017-11-24T10:46:59.259Z,1228
2017-11-24T10:47:59.900Z,1224
2017-11-24T10:49:00.514Z,1224
2017-11-24T10:50:01.136Z,1180
2017-11-24T10:51:01.761Z,1240
2017-11-24T10:52:02.373Z,1256
2017-11-24T10:53:03.010Z,1236
2017-11-24T10:54:03.608Z,1228
2017-11-24T10:55:04.230Z,1208
2017-11-24T10:56:04.841Z,1272
2017-11-24T10:57:05.460Z,1280
2017-11-24T10:58:06.075Z,1212
2017-11-24T10:59:06.697Z,1108
2017-11-24T11:00:07.311Z,1160
2017-11-24T11:01:07.928Z,1188
2017-11-24T11:02:08.544Z,1188
2017-11-24T11:03:09.167Z,1204
2017-11-24T11:04:09.780Z,1196
2017-11-24T11:05:10.420Z,1192
2017-11-24T11:06:11.042Z,1176
2017-11-24T11:07:11.654Z,1052
2017-11-24T11:08:12.273Z,1076
2017-11-24T11:09:12.892Z,972
2017-11-24T11:10:13.537Z,992
2017-11-24T11:11:14.158Z,988
2017-11-24T11:12:14.771Z,956
2017-11-24T11:13:15.387Z,944
2017-11-24T11:14:16.003Z,928
2017-11-24T11:15:16.624Z,836
2017-11-24T11:16:17.236Z,984
2017-11-24T11:17:17.891Z,960
2017-11-24T11:18:18.504Z,972
2017-11-24T11:19:19.149Z,1016
2017-11-24T11:20:19.764Z,1028
2017-11-24T11:21:20.383Z,940
2017-11-24T11:22:21.003Z,940
2017-11-24T11:23:21.659Z,988
2017-11-24T11:24:22.264Z,964
2017-11-24T11:25:22.885Z,920
2017-11-24T11:26:23.498Z,952
2017-11-24T11:27:24.147Z,972
2017-11-24T11:28:24.770Z,992
2017-11-24T11:29:25.379Z,808
2017-11-24T11:30:25.998Z,812
2017-11-24T11:31:26.611Z,884
2017-11-24T11:32:27.233Z,848
2017-11-24T11:33:27.847Z,904
2017-11-24T11:34:28.469Z,880
2017-11-24T11:35:29.080Z,964
2017-11-24T11:36:29.695Z,704
2017-11-24T11:37:30.310Z,516
2017-11-24T11:38:30.962Z,504
2017-11-24T11:39:31.574Z,416
2017-11-24T11:40:32.196Z,420
2017-11-24T11:41:32.805Z,524
2017-11-24T11:42:33.420Z,532
2017-11-24T11:43:34.038Z,480
2017-11-24T11:44:34.657Z,444
2017-11-24T11:45:35.300Z,568
2017-11-24T11:46:35.914Z,616
2017-11-24T11:47:36.534Z,852
2017-11-24T11:48:37.148Z,736
2017-11-24T11:49:37.762Z,1068
2017-11-24T11:50:38.376Z,992
2017-11-24T11:51:38.990Z,908
2017-11-24T11:52:39.609Z,948
2017-11-24T11:53:40.222Z,940
2017-11-24T11:54:40.844Z,892
2017-11-24T11:55:41.451Z,816
2017-11-24T11:56:42.073Z,712
2017-11-24T11:57:42.679Z,724
2017-11-24T11:58:43.295Z,636
2017-11-24T11:59:43.908Z,640
2017-11-24T12:00:44.525Z,624
2017-11-24T12:01:45.174Z,604
2017-11-24T12:02:45.758Z,516
2017-11-24T12:03:46.370Z,436
2017-11-24T12:04:47.013Z,376
2017-11-24T12:05:47.631Z,352
2017-11-24T12:06:48.247Z,332
2017-11-24T12:07:48.912Z,316
2017-11-24T12:08:49.530Z,300
2017-11-24T12:09:50.143Z,292
2017-11-24T12:10:50.756Z,280
2017-11-24T12:11:51.370Z,300
2017-11-24T12:12:51.993Z,296
2017-11-24T12:13:52.603Z,288
2017-11-24T12:14:53.217Z,300
2017-11-24T12:15:53.831Z,252
2017-11-24T12:16:54.446Z,248
2017-11-24T12:17:55.064Z,252
2017-11-24T12:18:55.676Z,248
2017-11-24T12:19:56.291Z,244
2017-11-24T12:20:56.904Z,244
2017-11-24T12:21:57.518Z,244
2017-11-24T12:22:58.132Z,244
2017-11-24T12:23:58.746Z,244
2017-11-24T12:24:59.360Z,244
2017-11-24T12:26:00.008Z,244
2017-11-24T12:27:00.629Z,248
2017-11-24T12:28:01.236Z,248
2017-11-24T12:29:01.847Z,252
2017-11-24T12:30:02.459Z,260
2017-11-24T12:31:03.072Z,260
2017-11-24T12:32:03.685Z,264
2017-11-24T12:33:04.350Z,276
2017-11-24T12:34:04.974Z,308
2017-11-24T12:35:05.586Z,336
2017-11-24T12:36:06.197Z,336
2017-11-24T12:37:06.814Z,372
2017-11-24T12:38:07.424Z,368
2017-11-24T12:39:08.038Z,344
2017-11-24T12:40:08.656Z,332
2017-11-24T12:41:09.264Z,328
2017-11-24T12:42:09.876Z,340
2017-11-24T12:43:10.489Z,472
2017-11-24T12:44:11.108Z,768
2017-11-24T12:45:11.720Z,784
2017-11-24T12:46:12.333Z,1004
2017-11-24T12:47:12.952Z,1204
2017-11-24T12:48:13.570Z,916
2017-11-24T12:49:14.181Z,728
2017-11-24T12:50:14.793Z,796
2017-11-24T12:51:15.413Z,828
2017-11-24T12:52:16.029Z,984
2017-11-24T12:53:16.643Z,588
2017-11-24T12:54:17.262Z,548
2017-11-24T12:55:17.876Z,460
2017-11-24T12:56:18.495Z,352
2017-11-24T12:57:19.106Z,324
2017-11-24T12:58:19.723Z,324
2017-11-24T12:59:20.337Z,320
2017-11-24T13:00:20.957Z,324
2017-11-24T13:01:21.568Z,344
2017-11-24T13:02:22.182Z,400
2017-11-24T13:03:22.801Z,444
2017-11-24T13:04:23.419Z,440
2017-11-24T13:05:24.031Z,376
2017-11-24T13:06:24.652Z,428
2017-11-24T13:07:25.262Z,352
2017-11-24T13:08:25.879Z,392
2017-11-24T13:09:26.506Z,396
2017-11-24T13:10:27.111Z,372
2017-11-24T13:11:27.732Z,368
2017-11-24T13:12:28.376Z,452
2017-11-24T13:13:28.987Z,928
2017-11-24T13:14:29.606Z,872
2017-11-24T13:15:30.224Z,904
2017-11-24T13:16:30.834Z,896
2017-11-24T13:17:31.450Z,884
2017-11-24T13:18:32.113Z,888
2017-11-24T13:19:32.729Z,924
2017-11-24T13:20:33.351Z,1000
2017-11-24T13:21:33.966Z,968
2017-11-24T13:22:34.617Z,912
2017-11-24T13:23:35.236Z,844
2017-11-24T13:24:35.838Z,824
2017-11-24T13:25:36.492Z,872
2017-11-24T13:26:37.096Z,872
2017-11-24T13:27:37.712Z,816
2017-11-24T13:28:38.377Z,756
2017-11-24T13:29:38.992Z,660
2017-11-24T13:30:39.608Z,576
2017-11-24T13:31:40.223Z,600
2017-11-24T13:32:40.842Z,616
2017-11-24T13:33:41.461Z,596
2017-11-24T13:34:42.109Z,672
2017-11-24T13:35:42.725Z,792
2017-11-24T13:36:43.343Z,892
2017-11-24T13:37:43.958Z,860
2017-11-24T13:38:44.572Z,888
2017-11-24T13:39:45.189Z,512
2017-11-24T13:40:45.804Z,524
2017-11-24T13:41:46.453Z,360
2017-11-24T13:42:47.073Z,340
2017-11-24T13:43:47.685Z,292
2017-11-24T13:44:48.300Z,300
2017-11-24T13:45:48.939Z,300
2017-11-24T13:46:49.535Z,260
2017-11-24T13:47:50.150Z,256
2017-11-24T13:48:50.766Z,256
2017-11-24T13:49:51.381Z,304
2017-11-24T13:50:51.998Z,632
2017-11-24T13:51:52.611Z,676
2017-11-24T13:52:53.231Z,588
2017-11-24T13:53:53.926Z,532
2017-11-24T13:54:54.543Z,472
2017-11-24T13:55:55.188Z,360
2017-11-24T13:56:55.803Z,280
2017-11-24T13:57:56.420Z,368
2017-11-24T13:58:57.035Z,304
2017-11-24T13:59:57.680Z,352
2017-11-24T14:00:58.303Z,352
2017-11-24T14:01:58.916Z,444
2017-11-24T14:02:59.530Z,532
2017-11-24T14:04:00.147Z,556
2017-11-24T14:05:00.761Z,904
2017-11-24T14:06:01.381Z,776
2017-11-24T14:07:01.996Z,396
2017-11-24T14:08:02.612Z,452
2017-11-24T14:09:03.227Z,320
2017-11-24T14:10:03.841Z,308
2017-11-24T14:11:04.459Z,304
2017-11-24T14:12:05.073Z,296
2017-11-24T14:13:05.687Z,296
2017-11-24T14:14:06.309Z,356
2017-11-24T14:15:06.928Z,308
2017-11-24T14:16:07.541Z,276
2017-11-24T14:17:08.188Z,256
2017-11-24T14:18:08.802Z,244
2017-11-24T14:19:09.416Z,248
2017-11-24T14:20:10.032Z,244
2017-11-24T14:21:10.647Z,236
2017-11-24T14:22:11.266Z,216
2017-11-24T14:23:11.878Z,212